Latest Weather Observations for Wagga Wagga

IDN60801

Issued at 8:02 pm EST Tuesday 28 April 2015 (issued every 30 minutes, with the page automatically refreshed every 10 minutes)

About weather observations | Map of weather stations | Latest weather observations for NSW | Other Formats
Station Details ID: 072150 Name: WAGGA WAGGA AMO Lat: -35.16 Lon: 147.46 Height: 212.0 m
Data from the previous 72 hours. | See also: Recent months at Wagga Wagga
Date/Time
EST
Temp
°C
App
Temp
°C
Dew
Point
Rel
Hum
%
Delta-T
°C
Wind Press
QNH
hPa
Press
MSL
hPa
Rain
since 9 am
mm
Dir
 
Spd
km/h
Gust
km/h
Spd
kts
Gust
kts
28/08:00pm 11.0 7.3 4.3 63 3.0 SSE 13 15 7 8 1026.4 1026.1 0.0
28/07:30pm 10.6 9.5 5.1 69 2.5 CALM 0 0 0 0 1026.1 1025.8 0.0
28/07:00pm 11.2 10.0 4.6 64 3.0 CALM 0 0 0 0 1025.9 1025.6 0.0
28/06:30pm 10.6 7.9 5.4 70 2.4 SSE 9 11 5 6 1025.6 1025.3 0.0
28/06:00pm 11.5 8.4 5.7 67 2.7 SSE 11 13 6 7 1025.4 1025.1 0.0
28/05:30pm 14.5 11.4 3.8 48 4.9 SSE 9 11 5 6 1025.1 1024.8 0.0
28/05:00pm 16.3 13.9 2.1 38 6.4 ESE 4 9 2 5 1024.9 1024.6 0.0
28/04:30pm 17.0 13.7 2.2 37 6.7 ENE 9 13 5 7 1024.7 1024.4 0.0
28/04:00pm 17.5 14.8 3.6 39 6.5 S 7 11 4 6 1024.6 1024.3 0.0
28/03:30pm 16.5 13.2 2.4 38 6.4 E 9 11 5 6 1024.7 1024.4 0.0
28/03:00pm 17.8 14.5 2.3 35 7.1 ENE 9 15 5 8 1024.6 1024.3 0.0
28/02:30pm 17.3 13.2 2.1 36 6.9 NE 13 20 7 11 1024.7 1024.4 0.0
28/02:00pm 17.2 13.2 2.6 37 6.7 NNE 13 19 7 10 1024.9 1024.6 0.0
28/01:30pm 17.7 13.1 1.4 33 7.3 NE 15 28 8 15 1025.2 1024.9 0.0
28/01:00pm 16.7 11.9 2.7 39 6.4 ENE 17 22 9 12 1025.6 1025.3 0.0
28/12:30pm 16.2 11.7 4.0 44 5.7 ENE 17 26 9 14 1026.0 1025.7 0.0
28/12:00pm 16.4 12.2 4.0 43 5.8 E 15 24 8 13 1026.4 1026.1 0.0
28/11:30am 15.4 12.1 4.5 48 5.1 ENE 11 19 6 10 1026.8 1026.5 0.0
28/11:00am 14.4 10.8 4.8 52 4.5 E 13 20 7 11 1027.0 1026.7 0.0
28/10:30am 14.5 11.4 5.7 55 4.2 E 11 17 6 9 1027.1 1026.9 0.0
28/10:00am 13.2 10.6 6.3 63 3.3 E 9 15 5 8 1027.2 1027.0 0.0
28/09:30am 11.6 8.7 6.3 70 2.5 E 11 13 6 7 1027.1 1026.9 0.0
28/09:00am 10.6 8.1 6.6 76 1.9 E 9 13 5 7 1026.9 1026.6 0.0
28/08:30am 9.9 6.6 6.5 79 1.6 E 13 13 7 7 1026.7 1026.4 0.0
28/08:00am 9.3 6.0 6.5 83 1.3 E 13 15 7 8 1026.5 1026.2 0.0
28/07:30am 7.4 3.9 5.4 87 0.9 ESE 13 15 7 8 1026.1 1025.8 0.0
28/07:00am 6.2 2.5 4.6 89 0.7 E 13 15 7 8 1025.9 1025.6 0.0
28/06:30am 6.0 3.1 4.9 93 0.5 ESE 9 11 5 6 1025.5 1025.2 0.0
28/05:30am 5.4 3.1 4.7 95 0.3 E 6 7 3 4 1024.7 1024.4 0.0
28/05:00am 3.9 1.1 3.2 95 0.3 E 7 9 4 5 1024.5 1024.2 0.0
28/04:30am 5.3 3.3 4.4 94 0.4 E 4 7 2 4 1024.1 1023.8 0.0
28/04:00am 4.8 3.5 4.1 95 0.3 CALM 0 6 0 3 1023.8 1023.6 0.0
28/03:30am 5.5 3.0 4.8 95 0.3 E 7 9 4 5 1023.5 1023.3 0.0
28/03:00am 5.5 3.9 4.3 92 0.5 E 2 6 1 3 1023.5 1023.3 0.0
28/02:30am 5.6 4.4 4.4 92 0.5 CALM 0 0 0 0 1023.5 1023.3 0.0
28/02:00am 5.2 3.9 4.0 92 0.5 CALM 0 0 0 0 1023.5 1023.3 0.0
28/01:30am 6.4 5.3 5.3 93 0.5 CALM 0 0 0 0 1023.6 1023.4 0.0
28/01:00am 6.4 5.0 5.3 93 0.5 E 2 6 1 3 1023.7 1023.5 0.0
28/12:30am 6.6 4.2 5.2 91 0.6 ENE 7 9 4 5 1023.6 1023.4 0.0
28/12:00am 6.9 4.7 5.1 88 0.8 ENE 6 7 3 4 1023.6 1023.4 0.0
 
Date/Time
EST
Temp
°C
App
Temp
°C
Dew
Point
Rel
Hum
%
Delta-T
°C
Wind Press
QNH
hPa
Press
MSL
hPa
Rain
since 9 am
mm
Dir
 
Spd
km/h
Gust
km/h
Spd
kts
Gust
kts
27/11:30pm 7.5 5.3 5.5 87 0.9 NE 6 7 3 4 1023.6 1023.4 0.0
27/11:00pm 7.7 5.4 5.5 86 1.0 NNE 7 7 4 4 1023.6 1023.4 0.0
27/10:30pm 8.5 6.7 5.4 81 1.4 ENE 4 7 2 4 1023.8 1023.6 0.0
27/10:00pm 9.0 7.6 5.5 79 1.6 WSW 2 7 1 4 1023.6 1023.4 0.0
27/09:30pm 8.7 7.7 5.4 80 1.5 CALM 0 0 0 0 1023.5 1023.3 0.0
27/09:00pm 8.6 6.3 5.5 81 1.4 WSW 7 9 4 5 1023.4 1023.2 0.0
27/08:30pm 9.3 6.9 5.3 76 1.8 WSW 7 9 4 5 1023.3 1023.1 0.0
27/08:00pm 9.7 6.5 5.1 73 2.1 WSW 11 13 6 7 1023.0 1022.8 0.0
27/07:30pm 10.1 6.9 5.1 71 2.3 WSW 11 13 6 7 1022.8 1022.5 0.0
27/07:00pm 10.4 6.5 5.2 70 2.4 SW 15 17 8 9 1022.4 1022.1 0.0
27/06:30pm 11.2 7.6 4.9 65 2.9 WSW 13 17 7 9 1022.0 1021.7 0.0
27/06:07pm 12.3 7.9 4.7 60 3.5 WSW 17 19 9 10 1021.7 1021.4 0.0
27/06:00pm 12.4 8.8 5.1 61 3.4 WSW 13 19 7 10 1021.7 1021.4 0.0
27/05:35pm 12.8 9.2 5.1 59 3.6 SW 13 17 7 9 1021.5 1021.2 0.0
27/05:30pm 13.1 9.1 5.0 58 3.8 SW 15 17 8 9 1021.4 1021.1 0.0
27/05:00pm 15.0 10.9 4.3 48 5.0 WSW 15 24 8 13 1021.1 1020.8 0.0
27/04:30pm 15.2 11.0 3.7 46 5.3 SW 15 19 8 10 1021.0 1020.7 0.0
27/04:00pm 16.1 11.5 3.6 43 5.8 WSW 17 22 9 12 1020.9 1020.6 0.0
27/03:30pm 16.2 11.2 3.8 43 5.8 WSW 19 22 10 12 1020.9 1020.6 0.0
27/03:00pm 15.7 10.5 3.6 44 5.6 WSW 20 30 11 16 1020.7 1020.4 0.0
27/02:30pm 15.9 11.0 3.9 44 5.6 SSW 19 24 10 13 1020.7 1020.4 0.0
27/02:00pm 16.1 12.1 4.7 46 5.4 SSW 15 22 8 12 1020.6 1020.3 0.0
27/01:30pm 15.7 12.4 4.4 47 5.3 SSW 11 17 6 9 1020.6 1020.3 0.0
27/01:00pm 16.1 12.2 5.5 49 5.1 SSW 15 20 8 11 1020.7 1020.4 0.0
27/12:30pm 14.5 11.2 4.4 50 4.7 SW 11 17 6 9 1021.1 1020.8 0.0
27/12:00pm 15.3 12.8 6.5 55 4.3 SSW 9 15 5 8 1021.4 1021.1 0.0
27/11:30am 14.2 10.6 6.6 60 3.7 WSW 15 22 8 12 1021.7 1021.4 0.0
27/11:00am 13.7 9.8 6.9 63 3.3 WSW 17 24 9 13 1021.9 1021.6 0.0
27/10:30am 12.9 8.9 6.5 65 3.1 WSW 17 20 9 11 1022.1 1021.8 0.0
27/10:00am 12.0 9.0 6.1 67 2.8 SW 11 17 6 9 1022.1 1021.8 0.0
27/09:30am 11.5 9.0 6.5 71 2.4 WNW 9 15 5 8 1022.1 1021.8 0.0
27/09:00am 11.2 9.6 6.3 72 2.3 ESE 4 9 2 5 1022.0 1021.7 0.0
27/08:30am 10.0 7.0 6.1 77 1.8 W 11 13 6 7 1021.8 1021.5 0.0
27/08:00am 8.5 5.4 5.6 82 1.3 WNW 11 15 6 8 1021.6 1021.3 0.0
27/07:30am 7.7 4.9 5.2 84 1.1 WSW 9 9 5 5 1021.4 1021.1 0.0
27/07:00am 6.6 4.1 5.0 89 0.7 W 7 9 4 5 1020.9 1020.6 0.0
27/06:30am 6.5 3.6 4.7 88 0.8 W 9 11 5 6 1020.6 1020.3 0.0
27/06:00am 7.7 5.3 4.5 80 1.4 WNW 6 7 3 4 1020.3 1020.0 0.0
27/05:30am 7.7 4.8 4.5 80 1.4 SSW 9 11 5 6 1020.0 1019.7 0.0
27/05:00am 8.3 5.0 4.7 78 1.6 WSW 11 13 6 7 1019.8 1019.5 0.0
27/04:30am 7.9 4.6 4.8 81 1.4 SW 11 13 6 7 1019.5 1019.2 0.0
27/04:00am 8.8 5.2 5.0 77 1.7 SW 13 17 7 9 1019.4 1019.1 0.0
27/03:30am 8.9 4.5 4.9 76 1.8 WSW 17 19 9 10 1019.1 1018.8 0.0
27/03:00am 8.8 5.3 5.3 79 1.6 WSW 13 17 7 9 1018.9 1018.6 0.0
27/02:30am 9.0 5.4 5.0 76 1.8 WSW 13 17 7 9 1018.8 1018.5 0.0
27/02:00am 8.9 4.9 5.1 77 1.7 WSW 15 17 8 9 1018.7 1018.4 0.0
27/01:30am 8.9 4.6 5.1 77 1.7 WSW 17 20 9 11 1018.5 1018.2 0.0
27/01:00am 8.9 4.9 4.9 76 1.8 WSW 15 19 8 10 1018.5 1018.2 0.0
27/12:30am 9.3 6.4 4.6 72 2.1 W 9 11 5 6 1018.6 1018.3 0.0
27/12:00am 9.6 5.6 4.7 71 2.2 WSW 15 20 8 11 1018.5 1018.2 0.0
 
Date/Time
EST
Temp
°C
App
Temp
°C
Dew
Point
Rel
Hum
%
Delta-T
°C
Wind Press
QNH
hPa
Press
MSL
hPa
Rain
since 9 am
mm
Dir
 
Spd
km/h
Gust
km/h
Spd
kts
Gust
kts
26/11:30pm 9.7 4.0 5.1 73 2.1 WSW 24 30 13 16 1018.4 1018.1 0.0
26/11:00pm 9.4 5.8 5.2 75 1.9 WSW 13 20 7 11 1018.6 1018.3 0.0
26/10:30pm 9.8 6.2 5.2 73 2.1 W 13 17 7 9 1018.6 1018.3 0.0
26/10:00pm 10.2 7.5 5.4 72 2.2 W 9 15 5 8 1018.5 1018.2 0.0
26/09:30pm 10.7 8.0 5.5 70 2.4 W 9 15 5 8 1018.4 1018.1 0.0
26/09:00pm 11.1 7.2 5.5 68 2.6 W 15 19 8 10 1018.3 1018.0 0.0
26/08:30pm 11.7 7.8 5.5 66 2.9 W 15 22 8 12 1018.1 1017.8 0.0
26/08:00pm 12.0 7.4 5.6 65 3.0 W 19 30 10 16 1017.7 1017.4 0.0
26/07:30pm 12.3 7.6 6.0 65 3.0 WSW 20 28 11 15 1017.4 1017.1 0.0
26/07:00pm 12.8 8.3 6.3 64 3.1 WSW 19 26 10 14 1017.2 1016.9 0.0
26/06:30pm 13.4 7.2 6.1 61 3.5 WSW 28 35 15 19 1016.8 1016.5 0.0
26/06:00pm 14.1 9.3 5.8 57 4.0 W 20 26 11 14 1016.4 1016.1 0.0
26/05:30pm 14.8 10.6 5.9 55 4.3 WSW 17 20 9 11 1015.9 1015.6 0.0
26/05:00pm 15.4 10.8 6.7 56 4.3 WSW 20 28 11 15 1015.6 1015.3 0.0
26/04:30pm 16.0 10.3 6.7 54 4.6 W 26 33 14 18 1015.2 1014.9 0.0
26/04:00pm 17.1 12.7 7.2 52 5.0 WSW 20 30 11 16 1014.9 1014.5 0.0
26/03:30pm 18.0 12.2 7.9 51 5.2 W 28 35 15 19 1014.5 1014.1 0.0
26/03:00pm 17.9 12.2 8.2 53 5.0 WSW 28 39 15 21 1014.2 1013.8 0.0
26/02:30pm 18.2 13.1 9.1 55 4.8 WSW 26 33 14 18 1013.9 1013.6 0.0
26/02:00pm 17.8 13.0 8.8 55 4.7 WSW 24 30 13 16 1013.8 1013.5 0.0
26/01:30pm 17.9 13.6 9.4 57 4.5 SW 22 32 12 17 1013.8 1013.5 0.0
26/01:00pm 17.0 13.1 9.4 61 4.0 WSW 20 32 11 17 1013.8 1013.5 0.0
26/12:30pm 16.2 12.2 9.1 63 3.7 WSW 20 28 11 15 1013.8 1013.5 0.0
26/12:00pm 16.6 12.7 9.6 63 3.7 WSW 20 32 11 17 1013.9 1013.6 0.0
26/11:30am 15.9 11.7 9.8 67 3.2 W 22 30 12 16 1014.3 1013.9 0.0
26/11:00am 15.0 11.3 10.3 73 2.5 WSW 20 28 11 15 1014.2 1013.8 0.0
26/10:30am 12.9 8.6 9.4 79 1.8 W 22 30 12 16 1014.3 1013.9 0.0
26/10:00am 13.7 10.2 10.1 79 1.9 WSW 19 26 10 14 1014.0 1013.7 0.0
26/09:30am 13.0 8.7 9.3 78 1.9 WSW 22 28 12 15 1014.0 1013.7 0.0
26/09:00am 12.0 9.0 9.2 83 1.4 WSW 15 19 8 10 1013.9 1013.6 1.6
26/08:30am 11.5 8.1 9.3 86 1.1 WSW 17 20 9 11 1013.7 1013.4 1.6
26/08:13am 12.0 9.4 9.2 83 1.4 W 13 17 7 9 1013.4 1013.1 1.6
26/08:00am 11.6 9.4 9.4 86 1.1 W 11 13 6 7 1013.2 1012.9 1.6
26/07:30am 10.9 8.3 9.3 90 0.8 WSW 13 15 7 8 1012.8 1012.5 1.6
26/07:00am 10.9 8.3 9.5 91 0.7 WSW 13 19 7 10 1012.3 1012.0 1.6
26/06:30am 10.8 8.6 9.4 91 0.7 W 11 15 6 8 1012.0 1011.7 1.6
26/06:00am 11.0 8.5 9.8 92 0.6 WSW 13 17 7 9 1011.7 1011.4 1.6
26/05:30am 11.1 8.2 9.7 91 0.7 WSW 15 22 8 12 1011.5 1011.2 1.6
26/05:00am 11.3 10.0 9.9 91 0.7 WSW 7 9 4 5 1011.4 1011.1 1.6
26/04:30am 11.3 9.6 9.9 91 0.7 W 9 13 5 7 1011.0 1010.7 1.6
26/04:00am 11.4 8.9 9.8 90 0.8 W 13 17 7 9 1010.7 1010.3 1.6
26/03:30am 11.4 9.7 10.0 91 0.7 WSW 9 13 5 7 1010.6 1010.2 1.6
26/03:00am 11.3 9.6 9.9 91 0.7 W 9 11 5 6 1010.3 1009.9 1.6
26/02:30am 11.2 9.1 9.8 91 0.7 WNW 11 13 6 7 1010.4 1010.0 1.6
26/02:00am 11.1 9.3 9.5 90 0.8 W 9 11 5 6 1010.5 1010.1 1.6
26/01:30am 10.8 9.0 9.4 91 0.7 W 9 13 5 7 1010.6 1010.2 1.6
26/01:03am 10.4 8.1 9.0 91 0.7 WNW 11 13 6 7 1010.3 1009.9 1.6
26/01:00am 10.4 8.1 9.0 91 0.7 WNW 11 13 6 7 1010.3 1009.9 1.6
26/12:30am 10.6 7.9 9.0 90 0.8 W 13 15 7 8 1010.3 1009.9 1.6
26/12:00am 10.8 8.2 9.2 90 0.8 W 13 17 7 9 1010.1 1009.7 1.6
 
Date/Time
EST
Temp
°C
App
Temp
°C
Dew
Point
Rel
Hum
%
Delta-T
°C
Wind Press
QNH
hPa
Press
MSL
hPa
Rain
since 9 am
mm
Dir
 
Spd
km/h
Gust
km/h
Spd
kts
Gust
kts
25/11:30pm 11.2 8.6 9.4 89 0.9 W 13 17 7 9 1010.1 1009.7 1.6
25/11:00pm 11.3 8.3 9.3 87 1.0 WSW 15 17 8 9 1010.2 1009.8 1.6
25/10:30pm 11.5 9.2 9.1 85 1.2 W 11 15 6 8 1010.1 1009.7 1.6
25/10:00pm 11.7 9.3 8.7 82 1.5 W 11 13 6 7 1010.4 1010.0 1.6
25/09:30pm 12.3 9.5 8.5 77 1.9 W 13 17 7 9 1010.1 1009.7 1.6
25/09:00pm 12.6 9.9 8.9 78 1.9 WSW 13 19 7 10 1010.0 1009.6 1.6
25/08:30pm 12.6 11.0 10.3 86 1.2 NW 9 13 5 7 1009.8 1009.4 1.6

Other Formats:

Comma delimited format used in spreadsheet applications
http://www.bom.gov.au/fwo/IDN60801/IDN60801.94910.axf

JavaScript Object Notation format (JSON) in row-major order
http://www.bom.gov.au/fwo/IDN60801/IDN60801.94910.json